Time;durP1;ratioP1;P1;durP2;ratioP2;P2;SDS_P1;SDS_P2;PMS_P1;PMS_P2;Temp;Humidity;BMP_temperature;BMP_pressure;BME280_temperature;BME280_humidity;BME280_pressure;Samples;Min_cycle;Max_cycle;Signal;HPM_P1;HPM_P2
2022/09/27 00:03:51;;;;;;;1.60;0.80;;;11.00;99.90;;;;;;8248098;28;20050;-79
2022/09/27 00:07:51;;;;;;;1.70;1.00;;;10.80;99.90;;;;;;8242684;28;20501;-78
2022/09/27 00:11:52;;;;;;;1.35;0.90;;;10.60;99.90;;;;;;8239687;28;20022;-79
2022/09/27 00:15:57;;;;;;;2.40;1.02;;;10.40;99.90;;;;;;8237999;28;20022;-80
2022/09/27 00:19:58;;;;;;;1.50;0.85;;;10.20;99.90;;;;;;8251691;28;20487;-78
2022/09/27 00:23:59;;;;;;;3.78;1.10;;;10.10;99.90;;;;;;8243270;28;20038;-79
2022/09/27 00:28:00;;;;;;;1.83;1.23;;;10.10;99.90;;;;;;8250991;28;20027;-79
2022/09/27 00:32:01;;;;;;;2.22;1.08;;;10.10;99.90;;;;;;8260188;28;20517;-78
2022/09/27 00:36:05;;;;;;;1.05;0.93;;;10.10;99.90;;;;;;8255611;28;20114;-79
2022/09/27 00:40:07;;;;;;;1.20;1.00;;;10.00;99.90;;;;;;8236306;28;20154;-79
2022/09/27 00:44:32;;;;;;;1.13;1.00;;;9.90;99.90;;;;;;8239192;28;20050;-79
2022/09/27 00:48:35;;;;;;;2.50;1.08;;;9.90;99.90;;;;;;8251778;28;20490;-79
2022/09/27 00:52:51;;;;;;;1.67;1.05;;;9.80;99.90;;;;;;8248046;28;20033;-79
2022/09/27 00:56:53;;;;;;;3.55;0.93;;;9.70;99.90;;;;;;8249529;28;20054;-79
2022/09/27 01:00:57;;;;;;;1.02;0.90;;;9.60;99.90;;;;;;8249475;28;20015;-80
2022/09/27 01:04:59;;;;;;;1.95;1.20;;;9.60;99.90;;;;;;8250635;28;20541;-79
2022/09/27 01:09:00;;;;;;;2.13;1.00;;;9.60;99.90;;;;;;8241702;28;20101;-80
2022/09/27 01:13:19;;;;;;;2.55;1.20;;;9.50;99.90;;;;;;8247672;28;20029;-80
2022/09/27 01:17:49;;;;;;;2.72;1.33;;;9.50;99.90;;;;;;8246466;28;20036;-79
2022/09/27 01:22:01;;;;;;;2.67;1.40;;;9.40;99.90;;;;;;8246154;28;20042;-79
2022/09/27 01:26:08;;;;;;;1.50;1.17;;;9.50;99.90;;;;;;8240252;28;20601;-81
2022/09/27 01:30:16;;;;;;;2.67;1.40;;;9.50;99.90;;;;;;8251450;28;20050;-79
2022/09/27 01:34:33;;;;;;;4.38;1.30;;;9.50;99.90;;;;;;8246238;28;20027;-80
2022/09/27 01:38:34;;;;;;;4.65;1.50;;;9.50;99.90;;;;;;8241494;28;20023;-80
2022/09/27 01:42:56;;;;;;;1.80;1.33;;;9.40;99.90;;;;;;8251084;28;20050;-80
2022/09/27 01:47:04;;;;;;;2.13;1.50;;;9.40;99.90;;;;;;8254919;28;20027;-81
2022/09/27 01:51:09;;;;;;;3.92;1.48;;;9.40;99.90;;;;;;8246056;28;20034;-80
2022/09/27 01:55:13;;;;;;;3.20;1.63;;;9.40;99.90;;;;;;8257233;28;20022;-80
2022/09/27 01:59:28;;;;;;;2.05;1.50;;;9.50;99.90;;;;;;8249030;28;20023;-80
2022/09/27 02:03:45;;;;;;;3.05;1.50;;;9.40;99.90;;;;;;8238747;28;20030;-80
2022/09/27 02:07:56;;;;;;;2.45;1.30;;;9.50;99.90;;;;;;8244785;28;20114;-79
2022/09/27 02:12:04;;;;;;;2.55;1.70;;;9.40;99.90;;;;;;8253741;28;20026;-79
2022/09/27 02:16:25;;;;;;;2.60;1.77;;;9.40;99.90;;;;;;8264756;28;20057;-80
2022/09/27 02:20:37;;;;;;;2.13;1.85;;;9.50;99.90;;;;;;8263044;28;20631;-81
2022/09/27 02:24:51;;;;;;;2.20;1.67;;;9.40;99.90;;;;;;8255236;28;20065;-80
2022/09/27 02:29:06;;;;;;;5.20;1.92;;;9.50;99.90;;;;;;8252104;28;20018;-79
2022/09/27 02:33:07;;;;;;;2.38;1.77;;;9.50;99.90;;;;;;8243499;28;20054;-81
2022/09/27 02:37:07;;;;;;;5.10;2.20;;;9.50;99.90;;;;;;8263103;28;20018;-80
2022/09/27 02:41:20;;;;;;;3.15;2.00;;;9.50;99.90;;;;;;8254747;28;20023;-80
2022/09/27 02:45:21;;;;;;;2.50;1.70;;;9.50;99.90;;;;;;8258124;28;20030;-81
2022/09/27 02:49:45;;;;;;;5.10;2.03;;;9.50;99.90;;;;;;8241805;28;20035;-80
2022/09/27 02:54:27;;;;;;;1.83;1.52;;;9.50;99.90;;;;;;8248223;28;20405;-80
2022/09/27 02:58:31;;;;;;;2.05;1.33;;;9.50;99.90;;;;;;8242701;28;20562;-81
2022/09/27 03:02:49;;;;;;;4.35;1.80;;;9.60;99.90;;;;;;8234342;28;20098;-80
2022/09/27 03:06:52;;;;;;;2.03;1.65;;;9.60;99.90;;;;;;8246561;28;20066;-80
2022/09/27 03:10:52;;;;;;;2.60;1.50;;;9.60;99.90;;;;;;8258976;28;20022;-80
2022/09/27 03:14:58;;;;;;;1.63;1.42;;;9.50;99.90;;;;;;8237801;28;20031;-81
2022/09/27 03:18:59;;;;;;;4.45;1.50;;;9.40;99.90;;;;;;8241748;28;20022;-80
2022/09/27 03:22:59;;;;;;;2.03;1.50;;;9.50;99.90;;;;;;8251036;28;20038;-80
2022/09/27 03:27:00;;;;;;;2.50;1.67;;;9.50;99.90;;;;;;8247761;28;20069;-79
2022/09/27 03:31:01;;;;;;;1.40;1.30;;;9.40;99.90;;;;;;8254093;28;20019;-80
2022/09/27 03:35:01;;;;;;;3.47;1.17;;;9.30;99.90;;;;;;8246307;28;20038;-79
2022/09/27 03:39:02;;;;;;;1.48;1.02;;;9.30;99.90;;;;;;8252353;28;20112;-80
2022/09/27 03:43:03;;;;;;;1.25;1.00;;;9.20;99.90;;;;;;8253561;28;20030;-79
2022/09/27 03:47:03;;;;;;;2.85;1.23;;;9.30;99.90;;;;;;8243259;28;20487;-79
2022/09/27 03:51:04;;;;;;;0.60;0.50;;;9.40;99.90;;;;;;8243744;28;20371;-79
2022/09/27 03:55:05;;;;;;;1.70;1.00;;;9.40;99.90;;;;;;8245452;28;20035;-79
2022/09/27 03:59:06;;;;;;;1.33;1.02;;;9.30;99.90;;;;;;8244081;28;20019;-79
2022/09/27 04:03:06;;;;;;;1.15;0.82;;;9.20;99.90;;;;;;8244748;28;20058;-79
2022/09/27 04:07:08;;;;;;;1.70;0.80;;;9.30;99.90;;;;;;8246098;28;20027;-80
2022/09/27 04:11:09;;;;;;;1.13;0.60;;;9.20;99.90;;;;;;8243041;28;20445;-80
2022/09/27 04:15:10;;;;;;;0.80;0.70;;;9.20;99.90;;;;;;8239401;28;20031;-79
2022/09/27 04:19:11;;;;;;;1.02;0.60;;;9.20;99.90;;;;;;8249804;28;20443;-79
2022/09/27 04:23:11;;;;;;;2.50;0.70;;;9.20;99.90;;;;;;8243491;28;20030;-79
2022/09/27 04:27:12;;;;;;;1.08;0.60;;;9.30;99.90;;;;;;8240970;28;20483;-79
2022/09/27 04:31:12;;;;;;;2.85;0.82;;;9.20;99.90;;;;;;8248515;28;20026;-78
2022/09/27 04:39:33;;;;;;;1.88;0.90;;;9.30;99.90;;;;;;8242149;28;20506;-79
2022/09/27 04:43:34;;;;;;;1.33;1.00;;;9.10;99.90;;;;;;8237777;28;20022;-78
2022/09/27 04:47:34;;;;;;;1.85;0.90;;;9.10;99.90;;;;;;8242338;28;20406;-78
2022/09/27 04:51:35;;;;;;;1.70;0.80;;;9.00;99.90;;;;;;8234917;28;20029;-78
2022/09/27 04:55:35;;;;;;;2.08;0.82;;;8.80;99.90;;;;;;8257220;28;20728;-79
2022/09/27 04:59:36;;;;;;;1.48;0.82;;;8.80;99.90;;;;;;8240363;28;20018;-79
2022/09/27 05:03:37;;;;;;;1.02;0.77;;;8.60;99.90;;;;;;8246651;28;20110;-77
2022/09/27 05:07:38;;;;;;;1.45;0.80;;;8.50;99.90;;;;;;8233558;28;20062;-79
2022/09/27 05:11:38;;;;;;;2.75;1.20;;;8.60;99.90;;;;;;8249350;28;20029;-78
2022/09/27 05:15:40;;;;;;;3.15;1.20;;;8.60;99.90;;;;;;8257704;28;20031;-79
2022/09/27 05:19:40;;;;;;;2.72;0.90;;;8.70;99.90;;;;;;8255249;28;20053;-78
2022/09/27 05:23:41;;;;;;;2.72;1.00;;;8.60;99.90;;;;;;8246647;28;20030;-79
2022/09/27 05:27:42;;;;;;;2.25;0.95;;;8.70;99.90;;;;;;8249830;28;20026;-79
2022/09/27 05:31:42;;;;;;;2.95;1.00;;;8.60;99.90;;;;;;8239297;28;20085;-78
2022/09/27 05:35:49;;;;;;;1.30;1.10;;;8.60;99.90;;;;;;8253815;28;20143;-78
2022/09/27 05:39:50;;;;;;;5.72;1.20;;;8.60;99.90;;;;;;8255026;28;20085;-78
2022/09/27 05:43:51;;;;;;;3.22;1.35;;;8.50;99.90;;;;;;8247921;28;20174;-78
2022/09/27 05:47:56;;;;;;;2.90;1.17;;;8.60;99.90;;;;;;8247195;28;20026;-78
2022/09/27 05:51:57;;;;;;;1.65;1.00;;;8.80;99.90;;;;;;8263177;28;20512;-78
2022/09/27 05:56:01;;;;;;;4.78;1.02;;;8.90;99.90;;;;;;8256628;28;20021;-81
2022/09/27 06:00:02;;;;;;;4.55;1.17;;;9.10;99.90;;;;;;8238412;28;20019;-78
2022/09/27 06:04:04;;;;;;;2.20;1.00;;;9.10;99.90;;;;;;8236334;28;20065;-78
2022/09/27 06:08:08;;;;;;;1.75;0.88;;;9.20;99.90;;;;;;8261080;28;20037;-78
2022/09/27 06:12:10;;;;;;;2.42;0.80;;;9.30;99.90;;;;;;8259399;28;20041;-78
2022/09/27 06:16:11;;;;;;;2.67;0.85;;;9.80;99.90;;;;;;8250856;28;20026;-77
2022/09/27 06:20:12;;;;;;;2.42;0.98;;;10.10;99.90;;;;;;8257643;28;20470;-78
2022/09/27 06:24:12;;;;;;;3.65;0.85;;;10.10;99.90;;;;;;8243430;28;20027;-78
2022/09/27 06:28:13;;;;;;;3.03;0.80;;;10.00;99.90;;;;;;8246990;28;20027;-78
2022/09/27 06:32:13;;;;;;;2.90;0.60;;;10.10;99.90;;;;;;8244276;28;20631;-78
2022/09/27 06:36:14;;;;;;;2.05;0.85;;;9.90;99.90;;;;;;8248011;28;20030;-78
2022/09/27 06:40:14;;;;;;;1.83;0.60;;;9.90;99.90;;;;;;8250701;28;20443;-78
2022/09/27 06:44:15;;;;;;;0.73;0.52;;;9.90;99.90;;;;;;8251612;28;20495;-78
2022/09/27 06:48:16;;;;;;;1.77;0.60;;;10.00;99.90;;;;;;8250566;28;20030;-78
2022/09/27 06:52:16;;;;;;;1.30;0.60;;;10.10;99.90;;;;;;8241139;28;20053;-77
2022/09/27 06:56:17;;;;;;;3.15;0.90;;;9.90;99.90;;;;;;8262141;28;20034;-77
2022/09/27 07:00:25;;;;;;;1.58;0.65;;;9.70;99.90;;;;;;8245474;28;20490;-80
2022/09/27 07:04:25;;;;;;;3.28;0.82;;;9.40;99.90;;;;;;8253066;28;20522;-79
2022/09/27 07:08:27;;;;;;;3.33;0.95;;;9.20;99.90;;;;;;8250485;28;20030;-78
2022/09/27 07:12:28;;;;;;;1.10;0.60;;;8.90;99.90;;;;;;8247800;28;20018;-78
2022/09/27 07:16:28;;;;;;;1.02;0.50;;;8.80;99.90;;;;;;8251419;28;20486;-78
2022/09/27 07:20:30;;;;;;;1.38;0.50;;;8.80;99.90;;;;;;8248277;28;20033;-79
2022/09/27 07:24:30;;;;;;;0.63;0.50;;;9.00;99.90;;;;;;8250876;28;20027;-78
2022/09/27 07:28:31;;;;;;;1.02;0.50;;;9.10;99.90;;;;;;8235558;28;20463;-78
2022/09/27 07:32:32;;;;;;;1.05;0.50;;;9.10;99.90;;;;;;8255783;28;20030;-78
2022/09/27 07:36:32;;;;;;;2.15;0.50;;;9.40;99.90;;;;;;8250897;28;20057;-77
2022/09/27 07:40:36;;;;;;;1.13;0.47;;;9.30;99.90;;;;;;8234647;28;20022;-77
2022/09/27 07:44:36;;;;;;;2.58;0.50;;;9.30;99.90;;;;;;8252355;28;20525;-78
2022/09/27 07:48:37;;;;;;;2.33;0.50;;;9.20;99.90;;;;;;8259629;28;20038;-77
2022/09/27 07:52:40;;;;;;;0.88;0.60;;;9.60;99.90;;;;;;8251454;28;20406;-78
2022/09/27 07:56:40;;;;;;;2.10;0.80;;;10.00;99.90;;;;;;8235258;28;20033;-78
2022/09/27 08:00:41;;;;;;;2.72;0.60;;;10.50;99.90;;;;;;8244285;28;20579;-78
2022/09/27 08:04:48;;;;;;;2.55;0.50;;;11.20;99.90;;;;;;8249558;28;20027;-78
2022/09/27 08:08:49;;;;;;;0.95;0.50;;;11.20;99.90;;;;;;8249369;28;20025;-80
2022/09/27 08:12:50;;;;;;;2.20;0.70;;;11.10;99.90;;;;;;8250474;28;20073;-79
2022/09/27 08:16:50;;;;;;;1.70;0.60;;;11.10;99.90;;;;;;8252509;28;20053;-78
2022/09/27 08:20:51;;;;;;;0.68;0.40;;;10.80;99.90;;;;;;8261567;28;20022;-78
2022/09/27 08:24:51;;;;;;;0.73;0.32;;;10.50;99.90;;;;;;8247469;28;20052;-78
2022/09/27 08:28:52;;;;;;;1.08;0.55;;;10.30;99.90;;;;;;8239836;28;20106;-78
2022/09/27 08:32:56;;;;;;;1.48;0.47;;;10.40;99.90;;;;;;8247327;28;20495;-78
2022/09/27 08:36:58;;;;;;;0.63;0.45;;;10.30;99.90;;;;;;8248995;28;20033;-78
2022/09/27 08:41:23;;;;;;;2.40;0.50;;;10.60;99.90;;;;;;8232299;28;20018;-78
2022/09/27 08:45:37;;;;;;;0.98;0.45;;;10.80;99.90;;;;;;8248496;28;20052;-78
2022/09/27 08:49:44;;;;;;;1.17;0.43;;;11.00;99.90;;;;;;8242786;28;20065;-78
2022/09/27 08:53:54;;;;;;;0.57;0.43;;;11.50;99.90;;;;;;8236809;28;20034;-78
2022/09/27 08:57:58;;;;;;;1.55;0.52;;;11.80;99.90;;;;;;8248194;28;20027;-78
2022/09/27 09:01:58;;;;;;;0.68;0.40;;;12.00;99.90;;;;;;8247254;28;20505;-78
2022/09/27 09:06:28;;;;;;;1.45;0.60;;;11.70;99.90;;;;;;8234977;28;20027;-79
2022/09/27 09:15:53;;;;;;;0.30;0.30;;;11.70;99.90;;;;;;8246344;28;20034;-81
2022/09/27 09:20:12;;;;;;;1.20;0.35;;;11.50;99.90;;;;;;8250840;28;20034;-81
2022/09/27 09:24:36;;;;;;;0.38;0.30;;;11.70;99.90;;;;;;8251204;28;20034;-79
2022/09/27 09:29:20;;;;;;;1.33;0.70;;;12.10;99.90;;;;;;8248656;28;20027;-79
2022/09/27 09:33:29;;;;;;;0.55;0.40;;;12.40;99.90;;;;;;8239559;28;20038;-78
2022/09/27 09:37:39;;;;;;;1.55;0.50;;;12.40;99.90;;;;;;8238498;28;20672;-78
2022/09/27 09:41:52;;;;;;;0.50;0.40;;;12.20;99.90;;;;;;8241091;28;20019;-78
2022/09/27 09:46:10;;;;;;;5.05;1.05;;;11.90;99.90;;;;;;8242145;28;20027;-79
2022/09/27 09:50:25;;;;;;;0.77;0.50;;;12.90;99.90;;;;;;8250407;28;20026;-79
2022/09/27 09:54:32;;;;;;;0.60;0.45;;;13.30;99.90;;;;;;8231682;28;20487;-78
2022/09/27 09:58:43;;;;;;;2.40;0.40;;;12.90;99.90;;;;;;8235573;28;20081;-78
2022/09/27 10:02:45;;;;;;;1.20;0.40;;;13.50;99.90;;;;;;8243503;28;20027;-78
2022/09/27 10:06:47;;;;;;;1.33;0.45;;;14.40;99.90;;;;;;8235286;28;20053;-78
2022/09/27 10:10:47;;;;;;;1.15;0.40;;;13.80;99.90;;;;;;8253214;28;20030;-78
2022/09/27 10:14:50;;;;;;;1.50;0.55;;;13.40;99.90;;;;;;8252518;28;20715;-78
2022/09/27 10:18:56;;;;;;;1.95;0.70;;;12.80;99.90;;;;;;8254266;28;20046;-78
2022/09/27 10:23:14;;;;;;;1.23;0.55;;;12.10;99.90;;;;;;8243134;28;20026;-77
2022/09/27 10:27:15;;;;;;;0.60;0.50;;;11.70;99.90;;;;;;8249550;28;20023;-78
2022/09/27 10:31:18;;;;;;;0.82;0.60;;;11.30;99.90;;;;;;8240692;28;20023;-77
2022/09/27 10:35:27;;;;;;;1.05;0.73;;;11.30;99.90;;;;;;8237295;28;20035;-78
2022/09/27 10:39:28;;;;;;;1.50;0.88;;;11.60;99.90;;;;;;8260241;28;20693;-78
2022/09/27 10:43:35;;;;;;;0.93;0.70;;;11.80;99.90;;;;;;8254461;28;20069;-77
2022/09/27 10:47:35;;;;;;;1.38;0.63;;;12.10;99.90;;;;;;8259432;28;20509;-78
2022/09/27 10:51:36;;;;;;;1.40;0.80;;;12.30;99.90;;;;;;8236271;28;20113;-79
2022/09/27 10:55:38;;;;;;;2.17;0.80;;;12.40;99.90;;;;;;8248199;28;20026;-77
2022/09/27 10:59:46;;;;;;;1.52;0.50;;;12.50;99.90;;;;;;8237413;28;20029;-78
2022/09/27 11:03:57;;;;;;;1.20;0.70;;;12.60;99.90;;;;;;8232296;28;20023;-78
2022/09/27 11:08:01;;;;;;;0.77;0.60;;;12.80;99.90;;;;;;8244579;28;20073;-79
2022/09/27 11:12:09;;;;;;;1.30;0.47;;;13.00;99.90;;;;;;8254659;28;20402;-79
2022/09/27 11:16:28;;;;;;;1.67;0.40;;;13.30;99.90;;;;;;8249690;28;20022;-78
2022/09/27 11:20:38;;;;;;;1.25;0.50;;;13.40;99.90;;;;;;8249379;28;20531;-79
2022/09/27 11:24:47;;;;;;;1.55;0.60;;;15.00;99.90;;;;;;8253787;28;20027;-78
2022/09/27 11:29:25;;;;;;;2.20;0.60;;;16.80;99.90;;;;;;8239814;28;20030;-78
2022/09/27 11:33:53;;;;;;;0.43;0.40;;;15.80;99.90;;;;;;8238445;28;20034;-78
2022/09/27 11:38:05;;;;;;;0.73;0.43;;;14.80;99.90;;;;;;8246606;28;20110;-78
2022/09/27 11:42:36;;;;;;;0.70;0.60;;;14.70;99.90;;;;;;8242595;28;20029;-78
2022/09/27 11:46:39;;;;;;;1.50;0.93;;;14.90;99.90;;;;;;8232303;28;20027;-79
2022/09/27 11:51:06;;;;;;;2.55;0.63;;;14.80;99.90;;;;;;8247974;28;20038;-82
2022/09/27 11:55:37;;;;;;;4.32;1.08;;;14.90;99.90;;;;;;8246832;28;20026;-79
2022/09/27 12:00:16;;;;;;;4.40;2.63;;;16.10;99.90;;;;;;8246257;28;20018;-79
2022/09/27 12:04:22;;;;;;;3.83;2.33;;;16.90;99.90;;;;;;8234434;28;20027;-78
2022/09/27 12:08:46;;;;;;;1.90;0.80;;;16.80;99.90;;;;;;8236054;28;20038;-80
2022/09/27 12:12:52;;;;;;;2.75;1.40;;;16.10;99.90;;;;;;8243530;28;20031;-78
2022/09/27 12:16:55;;;;;;;2.95;0.55;;;16.40;99.90;;;;;;8248011;28;20129;-79
2022/09/27 12:20:59;;;;;;;1.90;1.13;;;17.30;99.90;;;;;;8245216;28;20022;-80
2022/09/27 12:25:02;;;;;;;0.50;0.40;;;17.70;99.90;;;;;;8251762;28;20038;-79
2022/09/27 12:29:17;;;;;;;0.80;0.50;;;16.90;99.90;;;;;;8233265;28;20015;-79
2022/09/27 12:33:31;;;;;;;0.57;0.40;;;18.10;99.90;;;;;;8251422;28;20034;-79
2022/09/27 12:38:09;;;;;;;1.83;0.50;;;19.00;99.90;;;;;;8241522;28;20022;-80
2022/09/27 12:42:34;;;;;;;0.93;0.40;;;18.80;99.90;;;;;;8242974;28;20053;-78
2022/09/27 12:47:17;;;;;;;1.05;0.50;;;18.70;99.90;;;;;;8261030;28;20033;-79
2022/09/27 12:51:21;;;;;;;0.82;0.30;;;19.40;99.90;;;;;;8162408;28;20108;-79
2022/09/27 12:55:50;;;;;;;1.67;0.60;;;20.20;99.90;;;;;;8248166;28;20077;-79
2022/09/27 13:00:31;;;;;;;1.02;0.57;;;21.50;99.90;;;;;;8239906;28;20022;-79
2022/09/27 13:04:41;;;;;;;1.90;0.55;;;19.40;99.90;;;;;;8231101;28;20034;-79
2022/09/27 13:08:51;;;;;;;0.93;0.40;;;17.40;99.90;;;;;;8233101;28;20027;-81
2022/09/27 13:12:54;;;;;;;1.35;0.70;;;16.70;99.90;;;;;;8236529;28;20029;-79
2022/09/27 13:16:55;;;;;;;0.38;0.32;;;16.10;99.90;;;;;;8248383;28;20386;-78
2022/09/27 13:20:55;;;;;;;0.50;0.40;;;15.40;99.90;;;;;;8246122;28;20019;-80
2022/09/27 13:24:56;;;;;;;1.63;0.43;;;15.10;99.90;;;;;;8246042;28;20077;-79
2022/09/27 13:29:00;;;;;;;1.42;0.40;;;14.80;99.90;;;;;;8237880;28;20027;-79
2022/09/27 13:33:07;;;;;;;0.60;0.30;;;14.10;99.90;;;;;;8257119;28;20022;-78
2022/09/27 13:37:58;;;;;;;1.27;0.38;;;13.80;99.90;;;;;;8245579;28;20027;-78
2022/09/27 13:42:08;;;;;;;0.68;0.40;;;13.50;99.90;;;;;;8237914;28;20091;-78
2022/09/27 13:46:16;;;;;;;2.38;0.65;;;13.10;99.90;;;;;;8251772;28;20033;-79
2022/09/27 13:50:46;;;;;;;2.38;0.50;;;12.90;99.90;;;;;;8243246;28;20043;-79
2022/09/27 13:54:56;;;;;;;1.35;0.52;;;12.60;99.90;;;;;;8256445;28;20030;-78
2022/09/27 13:59:03;;;;;;;0.88;0.40;;;12.50;99.90;;;;;;8249877;28;20027;-78
2022/09/27 14:03:14;;;;;;;0.82;0.57;;;12.40;99.90;;;;;;8245885;28;20065;-78
2022/09/27 14:07:20;;;;;;;1.85;0.70;;;12.10;99.90;;;;;;8241509;28;20027;-78
2022/09/27 14:11:32;;;;;;;1.95;0.80;;;11.50;99.90;;;;;;8244700;28;20034;-80
2022/09/27 14:15:33;;;;;;;3.08;0.95;;;10.70;99.90;;;;;;8257354;28;20070;-80
2022/09/27 14:19:39;;;;;;;4.10;1.38;;;10.30;99.90;;;;;;8246700;28;20019;-79
2022/09/27 14:23:40;;;;;;;2.70;1.38;;;10.70;99.90;;;;;;8256645;28;20033;-78
2022/09/27 14:27:40;;;;;;;1.75;1.00;;;12.50;99.90;;;;;;8247688;28;20109;-78
2022/09/27 14:31:41;;;;;;;3.20;1.10;;;12.40;99.90;;;;;;8236936;28;20023;-78
2022/09/27 14:40:18;;;;;;;3.65;0.80;;;11.40;99.90;;;;;;8247790;28;20459;-77
2022/09/27 14:44:20;;;;;;;3.72;1.02;;;11.20;99.90;;;;;;8253210;28;20110;-77
2022/09/27 14:48:22;;;;;;;3.17;1.20;;;11.10;99.90;;;;;;8244811;28;20037;-77
2022/09/27 14:52:27;;;;;;;4.45;1.65;;;11.10;99.90;;;;;;8242386;28;20026;-77
2022/09/27 14:56:31;;;;;;;1.98;0.65;;;11.20;99.90;;;;;;8242941;28;20045;-77
2022/09/27 15:00:35;;;;;;;1.17;0.60;;;11.20;99.90;;;;;;8250447;28;20057;-79
2022/09/27 15:04:35;;;;;;;2.70;0.95;;;11.10;99.90;;;;;;8250584;28;20152;-77
2022/09/27 15:08:37;;;;;;;1.85;0.70;;;11.00;99.90;;;;;;8244660;28;20081;-77
2022/09/27 15:12:38;;;;;;;0.80;0.50;;;11.50;99.90;;;;;;8247651;28;20050;-78
2022/09/27 15:16:40;;;;;;;1.90;0.82;;;11.70;99.90;;;;;;8243557;28;20725;-78
2022/09/27 15:20:52;;;;;;;3.45;0.60;;;11.40;99.90;;;;;;8243348;28;20065;-77
2022/09/27 15:25:13;;;;;;;1.33;0.60;;;11.10;99.90;;;;;;8254083;28;20022;-77
2022/09/27 15:29:24;;;;;;;0.80;0.60;;;10.70;99.90;;;;;;8248638;28;20037;-77
2022/09/27 15:33:30;;;;;;;2.58;0.85;;;10.50;99.90;;;;;;8241626;28;20078;-78
2022/09/27 15:37:36;;;;;;;2.35;0.73;;;10.50;99.90;;;;;;8249194;28;20036;-77
2022/09/27 15:42:00;;;;;;;0.43;0.30;;;10.40;99.90;;;;;;8258404;28;20502;-79
2022/09/27 15:46:04;;;;;;;1.35;0.40;;;10.50;99.90;;;;;;8251059;28;20030;-78
2022/09/27 15:50:17;;;;;;;0.80;0.47;;;10.30;99.90;;;;;;8254517;28;20113;-78
2022/09/27 15:54:23;;;;;;;0.30;0.30;;;10.20;99.90;;;;;;8252901;28;20030;-79
2022/09/27 15:58:25;;;;;;;1.42;0.57;;;10.10;99.90;;;;;;8254272;28;20022;-78
2022/09/27 16:02:25;;;;;;;2.08;0.60;;;10.10;99.90;;;;;;8244189;28;20026;-78
2022/09/27 16:06:27;;;;;;;2.10;0.50;;;10.10;99.90;;;;;;8242600;28;20495;-78
2022/09/27 16:10:53;;;;;;;1.90;0.70;;;10.00;99.90;;;;;;8251898;28;20033;-79
2022/09/27 16:14:55;;;;;;;1.10;0.40;;;10.00;99.90;;;;;;8245226;28;20029;-78
2022/09/27 16:18:55;;;;;;;1.30;0.57;;;9.90;99.90;;;;;;8242525;28;20046;-78
2022/09/27 16:22:56;;;;;;;1.38;1.08;;;9.90;99.90;;;;;;8253611;28;20022;-79
2022/09/27 16:26:58;;;;;;;8.23;6.65;;;9.80;99.90;;;;;;8246279;28;20137;-79
2022/09/27 16:31:05;;;;;;;2.70;2.35;;;9.80;99.90;;;;;;8250614;28;20061;-78
2022/09/27 16:35:06;;;;;;;2.28;1.42;;;9.70;99.90;;;;;;8253666;28;20022;-78
2022/09/27 16:39:12;;;;;;;0.90;0.70;;;9.60;99.90;;;;;;8252132;28;20054;-78
2022/09/27 16:43:13;;;;;;;1.85;0.60;;;9.60;99.90;;;;;;8240306;28;20030;-79
2022/09/27 16:47:13;;;;;;;4.10;3.33;;;9.60;99.90;;;;;;8244857;28;20038;-77
2022/09/27 16:55:38;;;;;;;1.45;0.88;;;9.30;99.90;;;;;;8234496;28;20084;-78
2022/09/27 16:59:39;;;;;;;3.38;2.13;;;9.30;99.90;;;;;;8249602;28;20027;-78
2022/09/27 17:03:39;;;;;;;0.82;0.50;;;9.20;99.90;;;;;;8239058;28;20483;-77
2022/09/27 17:07:40;;;;;;;0.68;0.68;;;9.20;99.90;;;;;;8243240;28;20026;-78
2022/09/27 17:11:40;;;;;;;1.95;1.20;;;9.00;99.90;;;;;;8258427;28;20034;-78
2022/09/27 17:15:41;;;;;;;3.72;2.80;;;9.00;99.90;;;;;;8247855;28;20506;-78
2022/09/27 17:19:43;;;;;;;1.65;1.40;;;8.90;99.90;;;;;;8252881;28;20019;-78
2022/09/27 17:23:44;;;;;;;1.55;1.10;;;8.90;99.90;;;;;;8245348;28;20059;-78
2022/09/27 17:27:44;;;;;;;1.15;0.60;;;9.10;99.90;;;;;;8252777;28;20030;-78
2022/09/27 17:31:45;;;;;;;1.38;0.65;;;9.10;99.90;;;;;;8251213;28;20022;-79
2022/09/27 17:35:45;;;;;;;0.60;0.60;;;9.00;99.90;;;;;;8251381;28;20022;-79
2022/09/27 17:39:46;;;;;;;1.88;0.73;;;8.90;99.90;;;;;;8241123;28;20454;-78
2022/09/27 17:43:50;;;;;;;1.80;1.70;;;8.90;99.90;;;;;;8255805;28;20026;-78
2022/09/27 17:52:27;;;;;;;2.47;0.80;;;8.40;99.90;;;;;;8159376;28;20081;-79
2022/09/27 17:56:28;;;;;;;1.80;0.80;;;8.30;99.90;;;;;;8248232;28;20090;-78
2022/09/27 18:00:28;;;;;;;1.52;0.82;;;8.30;99.90;;;;;;8251988;28;20029;-79
2022/09/27 18:04:29;;;;;;;11.68;0.80;;;8.50;99.90;;;;;;8248067;28;20025;-78
2022/09/27 18:08:31;;;;;;;1.10;0.60;;;8.70;99.90;;;;;;8253683;28;20084;-79
2022/09/27 18:12:31;;;;;;;1.02;0.88;;;8.70;99.90;;;;;;8246468;28;21229;-78
2022/09/27 18:16:39;;;;;;;0.77;0.52;;;8.90;99.90;;;;;;8255149;28;20042;-78
2022/09/27 18:20:40;;;;;;;1.08;0.80;;;8.90;99.90;;;;;;8245829;28;20025;-78
2022/09/27 18:24:40;;;;;;;1.58;0.32;;;8.90;99.90;;;;;;8249342;28;20491;-78
2022/09/27 18:28:41;;;;;;;1.45;0.63;;;8.80;99.90;;;;;;8247715;28;20061;-78
2022/09/27 18:32:41;;;;;;;2.83;0.73;;;8.80;99.90;;;;;;8246589;28;20505;-78
2022/09/27 18:36:43;;;;;;;1.20;0.80;;;8.80;99.90;;;;;;8231592;28;20023;-78
2022/09/27 18:40:43;;;;;;;1.08;0.98;;;8.90;99.90;;;;;;8243199;28;20026;-79
2022/09/27 18:44:44;;;;;;;1.92;1.58;;;8.90;99.90;;;;;;8258314;28;20034;-78
2022/09/27 18:48:45;;;;;;;1.30;0.60;;;8.90;99.90;;;;;;8246618;28;20038;-78
2022/09/27 18:52:45;;;;;;;1.42;0.60;;;8.80;99.90;;;;;;8246242;28;20054;-78
2022/09/27 18:56:47;;;;;;;0.80;0.60;;;8.80;99.90;;;;;;8257100;28;20030;-78
2022/09/27 19:00:48;;;;;;;1.02;0.50;;;8.80;99.90;;;;;;8248501;28;20035;-78
2022/09/27 19:04:48;;;;;;;1.80;0.50;;;8.80;99.90;;;;;;8239523;28;20038;-79
2022/09/27 19:08:57;;;;;;;1.50;0.65;;;8.90;99.90;;;;;;8245327;28;20101;-79
2022/09/27 19:12:59;;;;;;;1.10;0.68;;;8.80;99.90;;;;;;8242824;28;20030;-79
2022/09/27 19:17:00;;;;;;;1.23;0.93;;;8.80;99.90;;;;;;8249630;28;20023;-80
2022/09/27 19:21:07;;;;;;;2.58;0.90;;;8.80;99.90;;;;;;8251220;28;20050;-78
2022/09/27 19:25:08;;;;;;;1.27;0.73;;;8.80;99.90;;;;;;8251108;28;20077;-78
2022/09/27 19:29:09;;;;;;;1.35;0.73;;;8.80;99.90;;;;;;8257166;28;20038;-78
2022/09/27 19:33:10;;;;;;;3.05;0.85;;;8.70;99.90;;;;;;8241438;28;20077;-81
2022/09/27 19:37:11;;;;;;;0.70;0.70;;;8.70;99.90;;;;;;8244392;28;20030;-78
2022/09/27 19:41:13;;;;;;;1.42;0.90;;;8.80;99.90;;;;;;8245737;28;20037;-78
2022/09/27 19:45:14;;;;;;;2.25;1.00;;;8.80;99.90;;;;;;8249479;28;20034;-79
2022/09/27 19:49:14;;;;;;;2.42;0.95;;;8.90;99.90;;;;;;8245015;28;20490;-78
2022/09/27 19:53:15;;;;;;;2.47;1.48;;;8.80;99.90;;;;;;8246423;28;20034;-78
2022/09/27 19:57:16;;;;;;;2.45;1.15;;;8.70;99.90;;;;;;8236930;28;20022;-78
2022/09/27 20:01:22;;;;;;;3.67;1.00;;;8.70;99.90;;;;;;8242541;28;20019;-77
2022/09/27 20:05:23;;;;;;;1.92;0.95;;;8.70;99.90;;;;;;8232457;28;20038;-78
2022/09/27 20:09:23;;;;;;;2.08;0.90;;;8.70;99.90;;;;;;8244629;28;20058;-78
2022/09/27 20:13:25;;;;;;;1.50;0.88;;;8.60;99.90;;;;;;8242545;28;20062;-78
2022/09/27 20:17:30;;;;;;;1.83;1.00;;;8.60;99.90;;;;;;8233005;28;20037;-77
2022/09/27 20:21:32;;;;;;;3.25;1.05;;;8.60;99.90;;;;;;8238531;28;20037;-78
2022/09/27 20:25:32;;;;;;;1.90;1.00;;;8.60;99.90;;;;;;8239442;28;20542;-78
2022/09/27 20:29:33;;;;;;;2.40;1.00;;;8.50;99.90;;;;;;8233820;28;20041;-78
2022/09/27 20:33:42;;;;;;;2.50;1.10;;;8.70;99.90;;;;;;8234886;28;20105;-80
2022/09/27 20:37:43;;;;;;;1.40;0.90;;;8.80;99.90;;;;;;8248825;28;20425;-78
2022/09/27 20:41:45;;;;;;;2.22;0.85;;;8.90;99.90;;;;;;8251721;28;20035;-78
2022/09/27 20:45:46;;;;;;;2.42;0.77;;;8.90;99.90;;;;;;8243612;28;20065;-79
2022/09/27 20:49:46;;;;;;;2.45;0.93;;;8.90;99.90;;;;;;8240786;28;20034;-78
2022/09/27 20:53:50;;;;;;;1.02;0.75;;;9.00;99.90;;;;;;8237879;28;20049;-79
2022/09/27 20:57:51;;;;;;;4.72;1.00;;;9.00;99.90;;;;;;8253511;28;20463;-78
2022/09/27 21:01:52;;;;;;;1.63;0.80;;;9.10;99.90;;;;;;8241146;28;20073;-78
2022/09/27 21:05:56;;;;;;;1.88;0.80;;;9.10;99.90;;;;;;8237962;28;20041;-77
2022/09/27 21:09:57;;;;;;;3.00;0.75;;;9.10;99.90;;;;;;8244819;28;20028;-78
2022/09/27 21:13:57;;;;;;;1.48;0.80;;;9.20;99.90;;;;;;8232532;28;20034;-78
2022/09/27 21:17:58;;;;;;;1.95;0.60;;;9.10;99.90;;;;;;8237592;28;20023;-79
2022/09/27 21:21:58;;;;;;;1.38;0.98;;;9.20;99.90;;;;;;8257280;28;20486;-78
2022/09/27 21:26:10;;;;;;;1.70;1.58;;;9.20;99.90;;;;;;8234875;28;20026;-78
2022/09/27 21:30:12;;;;;;;1.88;1.10;;;9.10;99.90;;;;;;8258038;28;20037;-78
2022/09/27 21:34:12;;;;;;;2.78;1.10;;;9.00;99.90;;;;;;8246724;28;20058;-77
2022/09/27 21:38:13;;;;;;;2.33;0.93;;;9.00;99.90;;;;;;8239327;28;20033;-78
2022/09/27 21:42:13;;;;;;;2.92;0.98;;;9.00;99.90;;;;;;8244818;28;20025;-78
2022/09/27 21:46:21;;;;;;;1.90;1.00;;;9.00;99.90;;;;;;8244918;28;20023;-78
2022/09/27 21:50:21;;;;;;;0.80;0.73;;;9.00;99.90;;;;;;8244502;28;20030;-79
2022/09/27 21:54:22;;;;;;;3.63;1.08;;;8.90;99.90;;;;;;8256403;28;20026;-78